Time;durP1;ratioP1;P1;durP2;ratioP2;P2;SDS_P1;SDS_P2;PMS_P1;PMS_P2;Temp;Humidity;BMP_temperature;BMP_pressure;BME280_temperature;BME280_humidity;BME280_pressure;Samples;Min_cycle;Max_cycle;Signal;HPM_P1;HPM_P2
2023/01/06 00:01:53;;;;;;;25.75;16.00;;;10.70;99.90;;;;;;5085395;28;20028;-48
2023/01/06 00:04:19;;;;;;;28.38;16.23;;;10.60;99.90;;;;;;5073555;28;20040;-50
2023/01/06 00:06:44;;;;;;;24.30;16.30;;;10.70;99.90;;;;;;5073256;28;20123;-48
2023/01/06 00:09:10;;;;;;;28.98;15.70;;;10.40;99.90;;;;;;5072997;28;20394;-46
2023/01/06 00:11:36;;;;;;;26.38;16.92;;;10.70;99.90;;;;;;5072213;28;20032;-47
2023/01/06 00:14:02;;;;;;;31.88;15.55;;;10.30;99.90;;;;;;5073363;28;20047;-48
2023/01/06 00:16:28;;;;;;;29.55;15.68;;;10.30;99.90;;;;;;5073182;28;20052;-47
2023/01/06 00:18:58;;;;;;;28.38;15.32;;;10.30;99.90;;;;;;5071327;28;20037;-47
2023/01/06 00:21:25;;;;;;;28.23;16.35;;;10.70;99.90;;;;;;5072629;28;20115;-47
2023/01/06 00:23:50;;;;;;;26.80;14.93;;;10.40;99.90;;;;;;5073303;28;20044;-49
2023/01/06 00:26:16;;;;;;;28.65;14.50;;;10.40;99.90;;;;;;5073064;28;20037;-49
2023/01/06 00:28:42;;;;;;;18.38;12.07;;;10.50;99.90;;;;;;5072657;28;20067;-49
2023/01/06 00:31:13;;;;;;;19.40;11.85;;;10.50;99.90;;;;;;5054862;28;20059;-47
2023/01/06 00:33:39;;;;;;;21.42;10.85;;;10.40;99.90;;;;;;5072597;28;20043;-49
2023/01/06 00:36:07;;;;;;;16.08;10.98;;;10.60;99.90;;;;;;5077412;28;20036;-50
2023/01/06 00:38:35;;;;;;;17.38;11.25;;;10.60;99.90;;;;;;5075976;28;20044;-47
2023/01/06 00:42:02;;;;;;;16.67;11.30;;;10.40;99.90;;;;;;5072571;28;20146;-46
2023/01/06 00:43:52;;;;;;;18.02;11.95;;;10.60;99.90;;;;;;5072570;28;20565;-48
2023/01/06 00:46:17;;;;;;;19.48;12.90;;;10.40;99.90;;;;;;5072082;28;21404;-50
2023/01/06 00:48:43;;;;;;;22.70;13.02;;;10.60;99.90;;;;;;5071231;28;20033;-49
2023/01/06 00:51:09;;;;;;;23.92;13.15;;;10.30;99.90;;;;;;5071186;28;20053;-46
2023/01/06 00:53:34;;;;;;;23.00;14.40;;;10.50;99.90;;;;;;5072511;28;20043;-49
2023/01/06 00:56:01;;;;;;;22.80;13.68;;;10.20;99.90;;;;;;5072298;28;20040;-46
2023/01/06 00:58:30;;;;;;;26.27;13.05;;;10.40;99.90;;;;;;5071838;28;20470;-51
2023/01/06 01:00:56;;;;;;;25.80;13.55;;;10.40;99.90;;;;;;5083354;28;20050;-49
2023/01/06 01:03:22;;;;;;;21.45;12.57;;;10.30;99.90;;;;;;5078028;28;20028;-51
2023/01/06 01:05:47;;;;;;;22.38;12.68;;;10.20;99.90;;;;;;5072618;28;20491;-47
2023/01/06 01:08:13;;;;;;;21.95;12.20;;;10.40;99.90;;;;;;5071686;28;20056;-49
2023/01/06 01:10:39;;;;;;;19.27;11.85;;;10.20;99.90;;;;;;5072118;28;20040;-47
2023/01/06 01:13:04;;;;;;;19.88;11.77;;;10.50;99.90;;;;;;5071955;28;20036;-47
2023/01/06 01:15:30;;;;;;;16.10;11.00;;;10.30;99.90;;;;;;5072311;28;20484;-48
2023/01/06 01:17:56;;;;;;;22.98;11.18;;;10.40;99.90;;;;;;5071790;28;20096;-48
2023/01/06 01:20:22;;;;;;;16.42;10.00;;;10.30;99.90;;;;;;5072054;28;20102;-45
2023/01/06 01:22:47;;;;;;;19.75;10.25;;;10.50;99.90;;;;;;5071400;28;20032;-45
2023/01/06 01:25:13;;;;;;;17.73;10.32;;;10.60;99.90;;;;;;5071821;28;20495;-49
2023/01/06 01:27:39;;;;;;;19.58;9.30;;;10.40;99.90;;;;;;5070934;28;20036;-47
2023/01/06 01:30:05;;;;;;;15.88;9.55;;;10.30;99.90;;;;;;5073019;28;20110;-47
2023/01/06 01:32:31;;;;;;;16.25;8.75;;;10.50;99.90;;;;;;5071099;28;20581;-48
2023/01/06 01:34:56;;;;;;;16.88;8.85;;;10.20;99.90;;;;;;5071304;28;20040;-49
2023/01/06 01:37:22;;;;;;;13.05;8.25;;;10.40;99.90;;;;;;5070140;28;20029;-48
2023/01/06 01:39:48;;;;;;;20.23;8.32;;;10.20;99.90;;;;;;5071697;28;20424;-47
2023/01/06 01:42:19;;;;;;;14.25;8.63;;;10.40;99.90;;;;;;5071248;28;20036;-47
2023/01/06 01:45:00;;;;;;;17.67;8.55;;;10.40;99.90;;;;;;5069955;28;20063;-47
2023/01/06 01:47:41;;;;;;;19.88;8.95;;;10.30;99.90;;;;;;5070956;28;20036;-47
2023/01/06 01:50:07;;;;;;;18.70;8.77;;;10.20;99.90;;;;;;5070875;28;20128;-51
2023/01/06 01:52:34;;;;;;;17.52;8.38;;;10.10;99.90;;;;;;5069933;28;20123;-47
2023/01/06 01:55:00;;;;;;;18.95;9.15;;;10.30;99.90;;;;;;5071251;28;20488;-51
2023/01/06 01:57:40;;;;;;;13.93;8.07;;;10.20;99.90;;;;;;5069215;28;20123;-49
2023/01/06 02:00:08;;;;;;;17.25;7.53;;;10.30;99.90;;;;;;5069868;28;20043;-46
2023/01/06 02:02:34;;;;;;;13.65;6.95;;;10.30;99.90;;;;;;5070783;28;20479;-48
2023/01/06 02:05:00;;;;;;;13.82;6.38;;;10.20;99.90;;;;;;5071109;28;20032;-47
2023/01/06 02:07:26;;;;;;;12.48;6.30;;;10.20;99.90;;;;;;5071270;28;20072;-48
2023/01/06 02:10:02;;;;;;;12.10;5.75;;;10.40;99.90;;;;;;5070894;28;20036;-48
2023/01/06 02:12:29;;;;;;;11.82;5.65;;;10.40;99.90;;;;;;5070991;28;20087;-49
2023/01/06 02:14:54;;;;;;;11.82;6.07;;;10.30;99.90;;;;;;5071217;28;20039;-50
2023/01/06 02:17:58;;;;;;;11.88;6.35;;;10.20;99.90;;;;;;5070594;28;20422;-52
2023/01/06 02:20:36;;;;;;;11.25;6.70;;;10.40;99.90;;;;;;5071364;28;20044;-47
2023/01/06 02:23:11;;;;;;;10.60;6.70;;;10.40;99.90;;;;;;5070066;28;20036;-47
2023/01/06 02:25:55;;;;;;;12.68;6.85;;;10.20;99.90;;;;;;5070806;28;20076;-49
2023/01/06 02:28:49;;;;;;;15.13;7.55;;;10.30;99.90;;;;;;5070236;28;20120;-46
2023/01/06 02:31:46;;;;;;;12.98;7.10;;;10.40;99.90;;;;;;5069617;28;20135;-48
2023/01/06 02:34:38;;;;;;;14.55;7.35;;;10.20;99.90;;;;;;5070911;28;20167;-47
2023/01/06 02:37:28;;;;;;;11.98;7.88;;;10.40;99.90;;;;;;5070837;28;20036;-48
2023/01/06 02:40:18;;;;;;;14.88;7.72;;;10.30;99.90;;;;;;5070806;28;20171;-48
2023/01/06 02:43:14;;;;;;;12.27;7.60;;;10.40;99.90;;;;;;5070950;28;20024;-48
2023/01/06 02:46:01;;;;;;;13.05;8.45;;;10.20;99.90;;;;;;5076229;28;20036;-47
2023/01/06 02:48:39;;;;;;;15.65;8.70;;;10.20;99.90;;;;;;5070438;28;20518;-48
2023/01/06 02:51:04;;;;;;;16.65;8.60;;;10.40;99.90;;;;;;5070805;28;20072;-48
2023/01/06 02:53:48;;;;;;;11.77;8.25;;;10.40;99.90;;;;;;5070780;28;20467;-47
2023/01/06 02:56:14;;;;;;;13.05;8.40;;;10.40;99.90;;;;;;5070633;28;20041;-48
2023/01/06 02:58:46;;;;;;;14.13;8.98;;;10.40;99.90;;;;;;5070378;28;20506;-49
2023/01/06 03:01:27;;;;;;;14.18;8.82;;;11.00;99.90;;;;;;5070265;28;20053;-47
2023/01/06 03:03:54;;;;;;;13.82;9.27;;;10.30;99.90;;;;;;5070732;28;20064;-48
2023/01/06 03:06:32;;;;;;;13.43;9.15;;;10.30;99.90;;;;;;5069982;28;20043;-49
2023/01/06 03:09:00;;;;;;;12.60;9.10;;;10.30;99.90;;;;;;5072357;28;20079;-47
2023/01/06 03:11:29;;;;;;;14.00;9.48;;;10.30;99.90;;;;;;5074598;28;20057;-49
2023/01/06 03:14:12;;;;;;;11.38;8.63;;;10.40;99.90;;;;;;5073154;28;20072;-49
2023/01/06 03:16:38;;;;;;;13.82;9.20;;;10.40;99.90;;;;;;5074431;28;20063;-50
2023/01/06 03:19:04;;;;;;;14.90;8.75;;;10.40;99.90;;;;;;5074260;28;20040;-50
2023/01/06 03:21:34;;;;;;;12.63;8.82;;;10.40;99.90;;;;;;5074301;28;20833;-48
2023/01/06 03:24:00;;;;;;;13.73;8.20;;;10.40;99.90;;;;;;5074078;28;20036;-48
2023/01/06 03:26:26;;;;;;;14.93;7.88;;;10.40;99.90;;;;;;5074032;28;20047;-50
2023/01/06 03:28:52;;;;;;;10.70;7.57;;;10.30;99.90;;;;;;5072105;28;20102;-47
2023/01/06 03:31:40;;;;;;;11.82;7.05;;;10.40;99.90;;;;;;5073644;28;20056;-51
2023/01/06 03:34:39;;;;;;;11.00;7.05;;;10.30;99.90;;;;;;5073872;28;20127;-50
2023/01/06 03:37:39;;;;;;;8.48;6.20;;;10.30;99.90;;;;;;5074128;28;20530;-49
2023/01/06 03:40:30;;;;;;;8.32;5.80;;;10.40;99.90;;;;;;5072992;28;20048;-46
2023/01/06 03:43:11;;;;;;;8.82;6.30;;;10.40;99.90;;;;;;5073017;28;20036;-47
2023/01/06 03:45:49;;;;;;;9.57;5.75;;;10.40;99.90;;;;;;5072795;28;20093;-49
2023/01/06 03:48:26;;;;;;;8.38;5.45;;;10.30;99.90;;;;;;5073679;28;20036;-48
2023/01/06 03:51:13;;;;;;;8.98;5.22;;;10.30;99.90;;;;;;5073867;28;20467;-46
2023/01/06 03:53:48;;;;;;;9.43;5.07;;;10.40;99.90;;;;;;5073303;28;20154;-48
2023/01/06 03:56:29;;;;;;;8.32;5.05;;;10.40;99.90;;;;;;5072832;28;20036;-49
2023/01/06 03:59:00;;;;;;;8.65;5.10;;;10.40;99.90;;;;;;5071780;28;20033;-50
2023/01/06 04:01:26;;;;;;;7.32;5.05;;;10.40;99.90;;;;;;5072187;28;20078;-49
2023/01/06 04:03:54;;;;;;;11.18;4.90;;;10.40;99.90;;;;;;5073401;28;20028;-48
2023/01/06 04:06:20;;;;;;;8.23;5.03;;;10.40;99.90;;;;;;5077386;28;20039;-46
2023/01/06 04:08:47;;;;;;;8.95;5.32;;;10.30;99.90;;;;;;5073616;28;20258;-52
2023/01/06 04:12:37;;;;;;;7.72;4.72;;;10.40;99.90;;;;;;5073125;28;20040;-48
2023/01/06 04:13:59;;;;;;;6.65;4.80;;;10.30;99.90;;;;;;5078520;28;20067;-49
2023/01/06 04:16:25;;;;;;;8.18;5.05;;;10.40;99.90;;;;;;5073267;28;20384;-47
2023/01/06 04:18:50;;;;;;;9.45;5.38;;;10.30;99.90;;;;;;5073288;28;20037;-51
2023/01/06 04:21:16;;;;;;;9.93;5.78;;;10.30;99.90;;;;;;5071932;28;20460;-48
2023/01/06 04:23:42;;;;;;;10.10;6.70;;;10.30;99.90;;;;;;5073346;28;20035;-51
2023/01/06 04:26:08;;;;;;;10.50;7.70;;;10.30;99.90;;;;;;5073074;28;20085;-47
2023/01/06 04:28:33;;;;;;;11.60;8.23;;;10.30;99.90;;;;;;5072765;28;20036;-48
2023/01/06 04:31:00;;;;;;;11.80;8.77;;;10.30;99.90;;;;;;5072890;28;20057;-47
2023/01/06 04:33:26;;;;;;;10.27;8.73;;;10.30;99.90;;;;;;5072706;28;20043;-47
2023/01/06 04:35:52;;;;;;;10.68;8.65;;;10.30;99.90;;;;;;5072689;28;20040;-48
2023/01/06 04:38:18;;;;;;;9.65;8.32;;;10.30;99.90;;;;;;5070154;28;20391;-46
2023/01/06 04:40:43;;;;;;;11.82;8.13;;;10.40;99.90;;;;;;5072828;28;20032;-47
2023/01/06 04:43:14;;;;;;;12.50;7.82;;;10.30;99.90;;;;;;5072526;28;20098;-46
2023/01/06 04:45:41;;;;;;;14.05;6.82;;;10.30;99.90;;;;;;5072695;28;20028;-49
2023/01/06 04:48:08;;;;;;;7.97;6.10;;;10.30;99.90;;;;;;5071210;28;20115;-47
2023/01/06 04:50:35;;;;;;;8.38;5.63;;;10.40;99.90;;;;;;5070850;28;20048;-47
2023/01/06 04:53:00;;;;;;;9.18;4.82;;;10.40;99.90;;;;;;5071191;28;20207;-47
2023/01/06 04:55:27;;;;;;;7.90;4.68;;;10.40;99.90;;;;;;5054225;28;20127;-47
2023/01/06 04:57:52;;;;;;;7.45;4.00;;;10.40;99.90;;;;;;5072175;28;20476;-50
2023/01/06 05:00:18;;;;;;;9.27;3.97;;;10.30;99.90;;;;;;5072512;28;20028;-49
2023/01/06 05:02:46;;;;;;;9.45;3.85;;;10.40;99.90;;;;;;5072279;28;20033;-48
2023/01/06 05:05:12;;;;;;;5.97;2.90;;;10.40;99.90;;;;;;5072409;28;20093;-50
2023/01/06 05:07:38;;;;;;;6.40;3.28;;;10.40;99.90;;;;;;5072086;28;20040;-49
2023/01/06 05:10:06;;;;;;;7.20;2.80;;;10.50;99.90;;;;;;5072204;28;20028;-46
2023/01/06 05:12:32;;;;;;;6.60;3.15;;;10.40;99.90;;;;;;5070596;28;20245;-47
2023/01/06 05:14:58;;;;;;;6.10;2.78;;;10.40;99.90;;;;;;5072178;28;20040;-50
2023/01/06 05:17:24;;;;;;;8.68;2.70;;;10.50;99.90;;;;;;5071231;28;20548;-48
2023/01/06 05:19:50;;;;;;;5.70;3.72;;;10.50;99.90;;;;;;5071594;28;20487;-46
2023/01/06 05:22:15;;;;;;;8.10;3.88;;;10.50;99.90;;;;;;5070954;28;20039;-50
2023/01/06 05:24:41;;;;;;;6.38;3.65;;;10.50;99.90;;;;;;5071874;28;20139;-51
2023/01/06 05:27:07;;;;;;;6.93;3.70;;;10.50;99.90;;;;;;5070232;28;20051;-50
2023/01/06 05:29:34;;;;;;;7.93;4.43;;;10.50;99.90;;;;;;5071547;28;20037;-50
2023/01/06 05:32:00;;;;;;;11.18;4.75;;;10.50;99.90;;;;;;5071185;28;20102;-51
2023/01/06 05:34:26;;;;;;;6.93;5.22;;;10.50;99.90;;;;;;5073789;28;20044;-48
2023/01/06 05:36:52;;;;;;;7.05;4.90;;;10.30;99.90;;;;;;5071299;28;20379;-46
2023/01/06 05:39:17;;;;;;;7.88;5.13;;;10.40;99.90;;;;;;5072843;28;20032;-50
2023/01/06 05:41:43;;;;;;;7.20;5.30;;;10.40;99.90;;;;;;5071041;28;20042;-50
2023/01/06 05:44:09;;;;;;;8.75;5.07;;;10.40;99.90;;;;;;5071225;28;20044;-49
2023/01/06 05:46:35;;;;;;;8.73;5.18;;;10.50;99.90;;;;;;5070893;28;20040;-48
2023/01/06 05:49:01;;;;;;;9.63;5.65;;;10.40;99.90;;;;;;5071216;28;20036;-48
2023/01/06 05:51:27;;;;;;;7.07;5.35;;;10.40;99.90;;;;;;5071500;28;20431;-47
2023/01/06 05:53:52;;;;;;;10.80;5.70;;;10.50;99.90;;;;;;5069550;28;20071;-48
2023/01/06 05:56:20;;;;;;;7.82;5.60;;;10.40;99.90;;;;;;5070949;28;20040;-50
2023/01/06 05:58:48;;;;;;;10.13;5.55;;;10.40;99.90;;;;;;5070673;28;20032;-48
2023/01/06 06:01:22;;;;;;;9.18;5.65;;;10.40;99.90;;;;;;5071051;28;20771;-48
2023/01/06 06:03:48;;;;;;;;;;;10.50;99.90;;;;;;5070839;28;20071;-49
2023/01/06 06:06:14;;;;;;;9.60;5.70;;;10.40;99.90;;;;;;5070989;28;20002;-49
2023/01/06 06:08:40;;;;;;;7.53;5.60;;;10.40;99.90;;;;;;5070666;28;20500;-50
2023/01/06 06:11:08;;;;;;;7.47;5.75;;;10.40;99.90;;;;;;5070753;28;20074;-51
2023/01/06 06:13:34;;;;;;;9.52;6.05;;;10.40;99.90;;;;;;5070615;28;20086;-50
2023/01/06 06:16:04;;;;;;;9.18;6.72;;;10.40;99.90;;;;;;5070467;28;20423;-53
2023/01/06 06:18:30;;;;;;;12.82;7.68;;;10.30;99.90;;;;;;5069516;28;20422;-47
2023/01/06 06:21:03;;;;;;;9.75;6.50;;;10.20;99.90;;;;;;5070563;28;20044;-48
2023/01/06 06:23:29;;;;;;;11.02;7.57;;;10.20;99.90;;;;;;5070341;28;20189;-53
2023/01/06 06:25:56;;;;;;;9.25;7.10;;;10.20;99.90;;;;;;5070554;28;20033;-50
2023/01/06 06:28:22;;;;;;;10.18;7.82;;;10.20;99.90;;;;;;5069856;28;20043;-48
2023/01/06 06:30:47;;;;;;;10.23;7.82;;;10.10;99.90;;;;;;5069258;28;20048;-47
2023/01/06 06:33:13;;;;;;;11.27;8.38;;;10.10;99.90;;;;;;5070544;28;20046;-49
2023/01/06 06:35:39;;;;;;;12.32;8.85;;;10.20;99.90;;;;;;5070345;28;20101;-48
2023/01/06 06:38:04;;;;;;;9.85;8.57;;;10.10;99.90;;;;;;5070352;28;20043;-50
2023/01/06 06:40:30;;;;;;;12.60;8.93;;;9.90;99.90;;;;;;5070042;28;20036;-49
2023/01/06 06:42:56;;;;;;;13.10;9.73;;;10.20;99.90;;;;;;5068423;28;20033;-47
2023/01/06 06:45:22;;;;;;;11.80;8.95;;;10.10;99.90;;;;;;5070364;28;20111;-46
2023/01/06 06:47:48;;;;;;;12.25;9.40;;;9.90;99.90;;;;;;5069356;28;20494;-49
2023/01/06 06:50:14;;;;;;;14.32;10.15;;;10.10;99.90;;;;;;5070205;28;20491;-48
2023/01/06 06:52:39;;;;;;;13.45;10.00;;;9.90;99.90;;;;;;5068795;28;20030;-48
2023/01/06 06:55:05;;;;;;;13.45;10.57;;;10.10;99.90;;;;;;5068648;28;20195;-49
2023/01/06 06:57:31;;;;;;;11.85;10.20;;;10.00;99.90;;;;;;5069892;28;20035;-51
2023/01/06 06:59:57;;;;;;;11.55;10.35;;;10.00;99.90;;;;;;5069864;28;20427;-50
2023/01/06 07:02:22;;;;;;;12.00;10.70;;;10.20;99.90;;;;;;5068665;28;20045;-47
2023/01/06 07:04:48;;;;;;;13.18;10.95;;;10.00;99.90;;;;;;5068958;28;20044;-49
2023/01/06 07:07:13;;;;;;;13.90;10.30;;;10.10;99.90;;;;;;5069847;28;20041;-48
2023/01/06 07:09:39;;;;;;;11.73;10.38;;;10.20;99.90;;;;;;5068994;28;20039;-47
2023/01/06 07:12:05;;;;;;;13.07;10.55;;;10.00;99.90;;;;;;5069961;28;20044;-49
2023/01/06 07:14:31;;;;;;;13.23;10.07;;;10.10;99.90;;;;;;5070268;28;20092;-46
2023/01/06 07:17:00;;;;;;;13.07;10.18;;;10.00;99.90;;;;;;5070023;28;20079;-49
2023/01/06 07:19:26;;;;;;;13.13;10.40;;;10.20;99.90;;;;;;5062781;28;20068;-46
2023/01/06 07:21:52;;;;;;;10.70;9.50;;;9.90;99.90;;;;;;5071062;28;20072;-49
2023/01/06 07:24:17;;;;;;;10.25;9.10;;;10.10;99.90;;;;;;5071667;28;20033;-49
2023/01/06 07:26:43;;;;;;;12.50;8.57;;;10.00;99.90;;;;;;5069887;28;20029;-48
2023/01/06 07:29:09;;;;;;;10.23;8.52;;;10.20;99.90;;;;;;5070147;28;20040;-48
2023/01/06 07:31:34;;;;;;;10.38;7.63;;;10.30;99.90;;;;;;5069726;28;20102;-48
2023/01/06 07:34:00;;;;;;;8.43;7.50;;;10.30;99.90;;;;;;5070404;28;20076;-48
2023/01/06 07:36:26;;;;;;;12.02;8.30;;;10.10;99.90;;;;;;5067658;28;20048;-46
2023/01/06 07:38:51;;;;;;;10.93;8.02;;;10.10;99.90;;;;;;5068886;28;20033;-47
2023/01/06 07:41:17;;;;;;;9.68;8.15;;;10.10;99.90;;;;;;5069924;28;20087;-48
2023/01/06 07:43:43;;;;;;;7.75;5.70;;;10.30;99.90;;;;;;5070029;28;20040;-47
2023/01/06 07:46:09;;;;;;;8.85;5.28;;;10.20;99.90;;;;;;5070222;28;20086;-48
2023/01/06 07:48:35;;;;;;;5.22;3.88;;;9.80;99.90;;;;;;5068771;28;20032;-49
2023/01/06 07:51:02;;;;;;;6.53;3.92;;;10.30;99.90;;;;;;5069554;28;20052;-49
2023/01/06 07:53:28;;;;;;;5.95;3.80;;;9.90;99.90;;;;;;5070356;28;20028;-50
2023/01/06 07:55:54;;;;;;;9.40;3.60;;;10.00;99.90;;;;;;5073223;28;20040;-46
2023/01/06 07:58:22;;;;;;;7.38;2.78;;;9.90;99.90;;;;;;5071683;28;20052;-48
2023/01/06 08:00:49;;;;;;;10.07;2.90;;;10.10;99.90;;;;;;5071910;28;20062;-49
2023/01/06 08:03:15;;;;;;;8.48;2.65;;;10.00;99.90;;;;;;5073670;28;20029;-48
2023/01/06 08:05:41;;;;;;;7.65;2.20;;;10.30;99.90;;;;;;5073125;28;20066;-48
2023/01/06 08:08:08;;;;;;;10.38;2.50;;;10.00;99.90;;;;;;5073532;28;20044;-49
2023/01/06 08:10:34;;;;;;;10.13;2.13;;;9.90;99.90;;;;;;5073228;28;20040;-51
2023/01/06 08:13:00;;;;;;;6.95;2.38;;;9.90;99.90;;;;;;5073443;28;20120;-49
2023/01/06 08:15:25;;;;;;;6.65;1.67;;;9.80;99.90;;;;;;5071885;28;20480;-49
2023/01/06 08:17:52;;;;;;;9.48;1.80;;;9.70;99.90;;;;;;5073331;28;20036;-50
2023/01/06 08:20:19;;;;;;;10.50;1.67;;;9.90;99.90;;;;;;5083321;28;20277;-51
2023/01/06 08:22:44;;;;;;;9.40;2.10;;;9.70;99.90;;;;;;5074774;28;20036;-48
2023/01/06 08:25:10;;;;;;;10.88;1.83;;;9.60;99.90;;;;;;5079696;28;20036;-51
2023/01/06 08:27:36;;;;;;;13.13;1.90;;;9.60;99.90;;;;;;5085061;28;20480;-48
2023/01/06 08:30:02;;;;;;;10.38;1.88;;;9.60;99.90;;;;;;5072346;28;20094;-46
2023/01/06 08:32:28;;;;;;;10.35;1.55;;;9.40;99.90;;;;;;5072643;28;20044;-53
2023/01/06 08:34:53;;;;;;;12.98;1.92;;;9.50;99.90;;;;;;5072944;28;20039;-48
2023/01/06 08:37:19;;;;;;;8.55;1.60;;;9.40;99.90;;;;;;5072853;28;20058;-48
2023/01/06 08:39:45;;;;;;;14.05;3.15;;;9.40;99.90;;;;;;5070837;28;20576;-49
2023/01/06 08:42:11;;;;;;;14.00;1.90;;;9.30;99.90;;;;;;5072311;28;20086;-47
2023/01/06 08:44:37;;;;;;;11.90;2.17;;;9.30;99.90;;;;;;5070996;28;20075;-50
2023/01/06 08:47:03;;;;;;;11.50;2.03;;;9.40;99.90;;;;;;5072406;28;20072;-49
2023/01/06 08:49:28;;;;;;;13.25;2.15;;;9.20;99.90;;;;;;5072304;28;20043;-47
2023/01/06 08:51:54;;;;;;;10.07;1.75;;;9.20;99.90;;;;;;5072027;28;20033;-47
2023/01/06 08:54:20;;;;;;;12.90;1.60;;;9.30;99.90;;;;;;5071951;28;20041;-49
2023/01/06 08:56:45;;;;;;;8.65;2.03;;;9.20;99.90;;;;;;5069745;28;20043;-49
2023/01/06 08:59:14;;;;;;;9.23;1.52;;;9.20;99.90;;;;;;5059727;28;20063;-47
2023/01/06 09:01:39;;;;;;;7.38;1.77;;;9.20;99.90;;;;;;5060670;28;20455;-49
2023/01/06 09:04:07;;;;;;;9.82;1.92;;;9.20;99.90;;;;;;5061972;28;20119;-48
2023/01/06 09:06:33;;;;;;;12.27;2.00;;;9.20;99.90;;;;;;5061874;28;20037;-48
2023/01/06 09:09:01;;;;;;;14.60;1.88;;;9.10;99.90;;;;;;5061823;28;21233;-48
2023/01/06 09:11:26;;;;;;;9.15;1.77;;;9.10;99.90;;;;;;5059145;28;20056;-50
2023/01/06 09:13:53;;;;;;;9.23;1.70;;;9.10;99.90;;;;;;5062961;28;20488;-47
2023/01/06 09:16:19;;;;;;;13.10;1.58;;;9.10;99.90;;;;;;5062251;28;20040;-50
2023/01/06 09:18:48;;;;;;;13.88;2.17;;;9.00;99.90;;;;;;5060957;28;20102;-48
2023/01/06 09:21:16;;;;;;;13.50;1.60;;;9.10;99.90;;;;;;5060283;28;20045;-47
2023/01/06 09:23:41;;;;;;;12.45;1.80;;;9.00;99.90;;;;;;5061285;28;20067;-50
2023/01/06 09:26:08;;;;;;;12.23;1.80;;;9.00;99.90;;;;;;5061022;28;20025;-48
2023/01/06 09:28:33;;;;;;;11.02;1.90;;;9.00;99.90;;;;;;5058862;28;20505;-48
2023/01/06 09:31:00;;;;;;;10.10;1.60;;;9.10;99.90;;;;;;5059571;28;20056;-49
2023/01/06 09:33:26;;;;;;;10.70;1.50;;;9.10;99.90;;;;;;5058377;28;20032;-48
2023/01/06 09:35:52;;;;;;;16.75;2.10;;;9.10;99.90;;;;;;5059265;28;20119;-47
2023/01/06 09:38:17;;;;;;;11.48;1.40;;;9.10;99.90;;;;;;5062697;28;20509;-50
2023/01/06 09:40:58;;;;;;;7.70;1.83;;;9.20;99.90;;;;;;5062880;28;20138;-50
2023/01/06 09:43:58;;;;;;;11.70;1.75;;;9.30;99.90;;;;;;5060728;28;20507;-50
2023/01/06 09:46:32;;;;;;;10.00;1.25;;;9.30;99.90;;;;;;5058981;28;20089;-52
2023/01/06 09:49:07;;;;;;;18.02;2.25;;;9.30;99.90;;;;;;5060412;28;20081;-50
2023/01/06 09:51:34;;;;;;;7.05;1.27;;;9.40;99.90;;;;;;5060494;28;20045;-51
2023/01/06 09:54:19;;;;;;;7.72;1.23;;;9.40;99.90;;;;;;5063047;28;20504;-53
2023/01/06 09:56:53;;;;;;;8.18;1.40;;;9.50;99.90;;;;;;5061634;28;20043;-51
2023/01/06 09:59:27;;;;;;;8.82;1.40;;;9.50;99.90;;;;;;5058820;28;20052;-50
2023/01/06 10:01:58;;;;;;;13.15;1.42;;;9.50;99.90;;;;;;5055569;28;20032;-50
2023/01/06 10:04:27;;;;;;;7.88;1.30;;;9.50;99.90;;;;;;5050589;28;20037;-48
2023/01/06 10:06:58;;;;;;;12.88;1.67;;;9.50;99.90;;;;;;5050683;28;20375;-49
2023/01/06 10:09:29;;;;;;;11.93;1.30;;;9.60;99.90;;;;;;5048909;28;20135;-49
2023/01/06 10:12:00;;;;;;;19.48;1.90;;;9.60;99.90;;;;;;5049791;28;22436;-46
2023/01/06 10:14:37;;;;;;;12.25;1.88;;;9.70;99.90;;;;;;5052048;28;20076;-48
2023/01/06 10:17:15;;;;;;;9.18;1.92;;;9.70;99.90;;;;;;5050003;28;20068;-49
2023/01/06 10:19:47;;;;;;;13.93;1.92;;;9.80;99.90;;;;;;5051367;28;20573;-51
2023/01/06 10:22:50;;;;;;;9.45;1.50;;;9.90;99.90;;;;;;5055744;28;20119;-47
2023/01/06 10:25:20;;;;;;;11.55;1.80;;;9.90;99.90;;;;;;5058177;28;20032;-51
2023/01/06 10:28:10;;;;;;;11.80;2.10;;;10.20;99.90;;;;;;5059941;28;20675;-48
2023/01/06 10:30:47;;;;;;;11.90;1.55;;;10.40;99.90;;;;;;5059312;28;20115;-48
2023/01/06 10:33:25;;;;;;;6.20;1.23;;;10.90;99.90;;;;;;5059341;28;20072;-52
2023/01/06 10:35:51;;;;;;;7.68;1.30;;;11.10;99.90;;;;;;5061367;28;20024;-51
2023/01/06 10:38:23;;;;;;;10.57;1.80;;;11.30;99.90;;;;;;5060052;28;20040;-48
2023/01/06 10:40:49;;;;;;;10.82;1.92;;;11.50;99.90;;;;;;5060377;28;20771;-51
2023/01/06 10:43:15;;;;;;;11.63;2.17;;;11.60;99.90;;;;;;5052317;28;20121;-52
2023/01/06 10:45:43;;;;;;;10.60;1.60;;;11.80;99.90;;;;;;5058821;28;20468;-50
2023/01/06 10:48:23;;;;;;;10.57;1.63;;;11.80;99.90;;;;;;5059437;28;20094;-51
2023/01/06 10:50:49;;;;;;;10.38;2.00;;;11.80;99.90;;;;;;5058526;28;20060;-47
2023/01/06 10:53:15;;;;;;;11.95;2.15;;;11.80;99.90;;;;;;5059870;28;20055;-51
2023/01/06 10:55:47;;;;;;;14.13;1.70;;;11.80;99.90;;;;;;5056672;28;20467;-47
2023/01/06 10:58:20;;;;;;;10.30;1.98;;;11.70;99.90;;;;;;5059805;28;20629;-51
2023/01/06 11:00:56;;;;;;;9.45;1.95;;;11.90;99.90;;;;;;5059516;28;20045;-50
2023/01/06 11:03:22;;;;;;;8.73;1.63;;;11.80;99.90;;;;;;5059185;28;20449;-49
2023/01/06 11:05:59;;;;;;;12.00;1.75;;;11.70;99.90;;;;;;5059142;28;20048;-49
2023/01/06 11:08:26;;;;;;;8.18;1.38;;;11.70;99.90;;;;;;5059422;28;20086;-51
2023/01/06 11:10:57;;;;;;;10.60;1.52;;;11.60;99.90;;;;;;5054725;28;20434;-49
2023/01/06 11:13:36;;;;;;;9.95;1.80;;;11.50;99.90;;;;;;5058920;28;20043;-49
2023/01/06 11:16:16;;;;;;;6.30;1.20;;;11.40;99.90;;;;;;5061200;28;20159;-51
2023/01/06 11:18:42;;;;;;;6.95;1.10;;;11.30;99.90;;;;;;5057430;28;20044;-49
2023/01/06 11:21:13;;;;;;;9.38;1.92;;;11.30;99.90;;;;;;5060085;28;20083;-52
2023/01/06 11:23:41;;;;;;;6.30;1.25;;;11.30;99.90;;;;;;5058576;28;20139;-52
2023/01/06 11:26:18;;;;;;;6.47;1.23;;;11.20;99.90;;;;;;5059049;28;20067;-50
2023/01/06 11:28:52;;;;;;;9.52;1.20;;;11.00;99.90;;;;;;5057610;28;20037;-49
2023/01/06 11:31:27;;;;;;;10.23;1.47;;;11.10;99.90;;;;;;5062533;28;20054;-50
2023/01/06 11:33:52;;;;;;;11.30;1.60;;;11.30;99.90;;;;;;5062349;28;21857;-53
2023/01/06 11:36:20;;;;;;;6.18;1.30;;;11.50;99.90;;;;;;5063324;28;20037;-49
2023/01/06 11:38:55;;;;;;;9.40;1.60;;;11.70;99.90;;;;;;5063898;28;20044;-50
2023/01/06 11:41:39;;;;;;;9.77;1.75;;;12.00;99.90;;;;;;5063686;28;20043;-48
2023/01/06 11:44:24;;;;;;;7.25;1.52;;;12.20;99.90;;;;;;5061699;28;20059;-47
2023/01/06 11:46:55;;;;;;;7.93;1.55;;;12.10;99.90;;;;;;5062645;28;20508;-45
2023/01/06 11:49:29;;;;;;;8.13;1.88;;;12.00;99.90;;;;;;5061093;28;20618;-50
2023/01/06 11:52:01;;;;;;;8.20;1.35;;;12.00;99.90;;;;;;5061265;28;20036;-51
2023/01/06 11:54:38;;;;;;;9.60;1.60;;;12.00;99.90;;;;;;5062559;28;20044;-48
2023/01/06 11:57:41;;;;;;;8.27;1.88;;;12.00;99.90;;;;;;5062629;28;20114;-51
2023/01/06 12:00:22;;;;;;;8.05;1.50;;;11.70;99.90;;;;;;5060710;28;20151;-48
2023/01/06 12:03:02;;;;;;;10.38;1.95;;;11.70;99.90;;;;;;5063598;28;20025;-49
2023/01/06 12:05:37;;;;;;;10.40;1.83;;;11.60;99.90;;;;;;5062336;28;20153;-45
2023/01/06 12:08:33;;;;;;;10.40;1.60;;;11.40;99.90;;;;;;5060748;28;20184;-46
2023/01/06 12:11:13;;;;;;;10.35;1.50;;;11.20;99.90;;;;;;5061093;28;20541;-47
2023/01/06 12:13:39;;;;;;;9.98;1.67;;;11.10;99.90;;;;;;5051532;28;23538;-50
2023/01/06 12:16:31;;;;;;;6.45;1.58;;;11.00;99.90;;;;;;5053148;28;20056;-49
2023/01/06 12:18:57;;;;;;;9.88;1.50;;;10.90;99.90;;;;;;5061395;28;20044;-47
2023/01/06 12:21:29;;;;;;;10.00;1.90;;;11.00;99.90;;;;;;5062064;28;20040;-49
2023/01/06 12:23:59;;;;;;;8.93;1.67;;;10.90;99.90;;;;;;5062047;28;20040;-48
2023/01/06 12:26:26;;;;;;;8.93;1.48;;;10.90;99.90;;;;;;5063651;28;20072;-48
2023/01/06 12:28:54;;;;;;;12.20;2.00;;;10.90;99.90;;;;;;5060685;28;20464;-50
2023/01/06 12:31:23;;;;;;;7.05;1.60;;;10.80;99.90;;;;;;5063363;28;20060;-53
2023/01/06 12:33:57;;;;;;;6.30;1.35;;;10.80;99.90;;;;;;5063761;28;20442;-50
2023/01/06 12:36:47;;;;;;;7.18;1.17;;;10.80;99.90;;;;;;5066279;28;20054;-51
2023/01/06 12:39:34;;;;;;;11.02;1.48;;;10.70;99.90;;;;;;5066536;28;20129;-49
2023/01/06 12:42:14;;;;;;;8.52;1.67;;;10.60;99.90;;;;;;5068010;28;20041;-51
2023/01/06 12:44:48;;;;;;;8.18;1.63;;;10.60;99.90;;;;;;5069955;28;20036;-48
2023/01/06 12:47:17;;;;;;;10.73;1.90;;;10.50;99.90;;;;;;5070186;28;20033;-48
2023/01/06 12:50:06;;;;;;;8.55;1.40;;;10.50;99.90;;;;;;5070167;28;20048;-54
2023/01/06 12:52:44;;;;;;;11.63;1.83;;;10.50;99.90;;;;;;5067981;28;20075;-49
2023/01/06 12:55:25;;;;;;;7.93;1.48;;;10.40;99.90;;;;;;5071683;28;20044;-48
2023/01/06 12:58:25;;;;;;;9.63;1.80;;;10.40;99.90;;;;;;5071751;28;20040;-51